Newton, Massachusetts
Current Conditions -  °F | °C
As of 4:56 PM on Sunday 25 Jan 2015 (Local Time) from KBED Reporting Station
Clear Clear  
Wind Chill: 22°   Ceiling: Unl
Heat Index: 30°   Visibility: 10mi
Dew Point:   Wind: 8mph
Humidity: 38%   Direction: 280°W
Pressure: 29.77"   Gusts: NA
Location:  42.34°N, 71.21°W
Report Text: KBED 252156Z 28007KT 10SM CLR M01/M14 A2977 RMK AO2 SLP096 T10111139
Loading
Personal Weather Stations






























Interactive Weather Map New forecast layout! Learn more

10-Day Weather Forecast

Advertisements
Track Severe Weather on mobile